TimeCST,TemperatureF,Dew PointF,Humidity,Sea Level PressureIn,VisibilityMPH,Wind Direction,Wind SpeedMPH,Gust SpeedMPH,PrecipitationIn,Events,Conditions,WindDirDegrees,DateUTC
12:53 AM,34.0,23.0,64,30.23,10.0,NE,11.5,-,N/A,,Overcast,40,2014-02-11 06:53:00
1:53 AM,35.1,24.1,64,30.24,10.0,NNE,9.2,-,N/A,,Overcast,30,2014-02-11 07:53:00
2:53 AM,35.1,25.0,67,30.23,10.0,NNE,10.4,-,N/A,,Overcast,30,2014-02-11 08:53:00
3:53 AM,34.0,24.1,67,30.24,10.0,NE,9.2,-,N/A,,Overcast,40,2014-02-11 09:53:00
4:53 AM,34.0,24.1,67,30.24,10.0,NE,9.2,-,N/A,,Overcast,40,2014-02-11 10:53:00
5:53 AM,34.0,21.9,61,30.24,10.0,NE,11.5,-,N/A,,Overcast,40,2014-02-11 11:53:00
6:53 AM,34.0,21.9,61,30.27,10.0,NE,8.1,-,N/A,,Overcast,50,2014-02-11 12:53:00
7:53 AM,33.1,21.0,61,30.27,10.0,NE,12.7,-,N/A,,Overcast,40,2014-02-11 13:53:00
8:53 AM,34.0,21.0,59,30.29,10.0,NNE,10.4,-,N/A,,Overcast,30,2014-02-11 14:53:00
9:53 AM,34.0,18.0,52,30.29,10.0,NNE,13.8,-,N/A,,Mostly Cloudy,30,2014-02-11 15:53:00
10:53 AM,34.0,18.0,52,30.30,10.0,NE,13.8,-,N/A,,Mostly Cloudy,50,2014-02-11 16:53:00
11:53 AM,35.1,19.9,54,30.27,10.0,NE,11.5,-,N/A,,Partly Cloudy,40,2014-02-11 17:53:00
12:53 PM,35.1,21.9,59,30.25,10.0,NNE,8.1,-,0.00,Rain,Light Rain,30,2014-02-11 18:53:00
1:53 PM,32.0,26.1,79,30.19,7.0,NNE,9.2,-,0.03,Rain,Light Freezing Rain,20,2014-02-11 19:53:00
2:06 PM,32.0,26.6,80,30.17,6.0,NNE,9.2,-,0.02,Rain,Light Freezing Rain,20,2014-02-11 20:06:00
2:50 PM,32.0,26.6,80,30.20,8.0,NNE,8.1,-,0.11,Rain,Light Freezing Rain,20,2014-02-11 20:50:00
2:53 PM,32.0,26.1,79,30.21,9.0,NNE,4.6,-,0.11,Rain,Light Freezing Rain,30,2014-02-11 20:53:00
3:25 PM,30.2,26.6,86,30.20,4.0,North,6.9,-,0.04,Rain,Light Freezing Rain,10,2014-02-11 21:25:00
3:33 PM,32.0,26.6,80,30.22,5.0,NNE,5.8,-,0.05,Rain,Light Freezing Rain,20,2014-02-11 21:33:00
3:40 PM,32.0,26.6,80,30.21,7.0,North,8.1,-,0.05,Rain,Light Freezing Rain,350,2014-02-11 21:40:00
3:53 PM,32.0,27.0,82,30.22,10.0,North,8.1,-,0.05,Rain,Light Freezing Rain,10,2014-02-11 21:53:00
4:00 PM,32.0,26.6,80,30.20,10.0,North,8.1,-,0.00,Rain,Light Freezing Rain,10,2014-02-11 22:00:00
4:30 PM,30.2,26.6,86,30.21,3.0,North,10.4,-,0.02,Rain,Light Freezing Rain,360,2014-02-11 22:30:00
4:45 PM,30.2,28.4,93,30.21,3.0,North,9.2,-,0.05,Rain,Light Freezing Rain,350,2014-02-11 22:45:00
4:48 PM,30.2,28.4,93,30.21,2.5,NNE,9.2,-,0.06,Rain,Light Freezing Rain,20,2014-02-11 22:48:00
4:53 PM,30.9,27.0,85,30.22,3.0,NNE,9.2,-,0.07,Rain,Light Freezing Rain,20,2014-02-11 22:53:00
5:00 PM,30.2,26.6,86,30.20,3.0,North,10.4,-,0.01,Rain,Light Freezing Rain,10,2014-02-11 23:00:00
5:07 PM,30.2,26.6,86,30.20,4.0,NNE,10.4,-,0.02,Rain,Light Freezing Rain,20,2014-02-11 23:07:00
5:16 PM,30.2,28.4,93,30.19,5.0,NNE,9.2,-,0.03,Rain,Light Freezing Rain,20,2014-02-11 23:16:00
5:23 PM,30.2,28.4,93,30.22,4.0,North,3.5,-,0.03,Snow,Light Snow,10,2014-02-11 23:23:00
5:30 PM,30.2,28.4,93,30.22,4.0,North,4.6,-,0.06,Rain,Light Freezing Rain,10,2014-02-11 23:30:00
5:53 PM,30.9,28.0,89,30.22,3.0,North,10.4,-,0.11,Rain,Light Freezing Rain,10,2014-02-11 23:53:00
6:06 PM,30.2,26.6,86,30.21,6.0,North,12.7,-,0.01,Rain,Light Freezing Rain,10,2014-02-12 00:06:00
6:13 PM,30.2,26.6,86,30.22,6.0,NNE,10.4,-,0.02,Rain,Light Freezing Rain,20,2014-02-12 00:13:00
6:24 PM,30.2,26.6,86,30.21,5.0,NNE,12.7,-,0.03,Rain,Light Freezing Rain,20,2014-02-12 00:24:00
6:26 PM,30.2,26.6,86,30.21,5.0,NNE,12.7,-,0.03,Rain,Light Freezing Rain,20,2014-02-12 00:26:00
6:53 PM,30.0,27.0,88,30.22,7.0,NNE,9.2,-,0.05,Rain,Light Freezing Rain,20,2014-02-12 00:53:00
7:29 PM,30.2,26.6,86,30.22,8.0,NNE,9.2,-,0.01,Rain,Light Freezing Rain,30,2014-02-12 01:29:00
7:46 PM,30.2,26.6,86,30.22,7.0,NNE,9.2,-,0.02,Rain,Light Freezing Rain,20,2014-02-12 01:46:00
7:53 PM,30.9,27.0,85,30.23,7.0,NNE,9.2,-,0.02,Rain,Light Freezing Rain,20,2014-02-12 01:53:00
8:05 PM,30.2,26.6,86,30.22,7.0,North,12.7,-,0.01,Rain,Light Freezing Rain,10,2014-02-12 02:05:00
8:53 PM,30.0,26.1,85,30.24,9.0,NNE,10.4,-,0.03,Rain,Light Freezing Rain,20,2014-02-12 02:53:00
9:00 PM,30.2,26.6,86,30.23,9.0,NNE,11.5,-,0.00,Rain,Light Freezing Rain,20,2014-02-12 03:00:00
9:53 PM,28.9,25.0,85,30.23,10.0,NNE,9.2,-,0.00,,Overcast,20,2014-02-12 03:53:00
10:02 PM,28.4,24.8,86,30.23,10.0,North,9.2,-,0.00,Rain,Light Freezing Rain,10,2014-02-12 04:02:00
10:30 PM,28.4,24.8,86,30.22,10.0,NNE,10.4,-,0.00,,Overcast,30,2014-02-12 04:30:00
10:53 PM,28.9,25.0,85,30.20,10.0,NE,9.2,-,0.00,,Overcast,50,2014-02-12 04:53:00
11:53 PM,28.9,25.0,85,30.21,10.0,NNE,6.9,-,N/A,,Overcast,20,2014-02-12 05:53:00